Time;durP1;ratioP1;P1;durP2;ratioP2;P2;SDS_P1;SDS_P2;PMS_P1;PMS_P2;Temp;Humidity;BMP_temperature;BMP_pressure;BME280_temperature;BME280_humidity;BME280_pressure;Samples;Min_cycle;Max_cycle;Signal;HPM_P1;HPM_P2
2021/12/13 00:00:49;;;;;;;;;;;7.80;97.00;;;;;;5086503;28;19915;-70
2021/12/13 00:03:26;;;;;;;;;;;7.80;96.80;;;;;;5088343;28;19951;-70
2021/12/13 00:06:05;;;;;;;;;;;7.80;96.90;;;;;;5082624;28;20364;-70
2021/12/13 00:08:33;;;;;;;;;;;7.80;96.80;;;;;;5089120;28;19919;-70
2021/12/13 00:11:05;;;;;;;;;;;7.80;96.80;;;;;;5084368;28;20436;-70
2021/12/13 00:13:40;;;;;;;;;;;7.80;96.90;;;;;;5089117;28;19923;-70
2021/12/13 00:16:07;;;;;;;;;;;7.80;97.00;;;;;;5083012;28;19916;-70
2021/12/13 00:18:44;;;;;;;;;;;7.80;96.80;;;;;;5087563;28;19923;-70
2021/12/13 00:21:13;;;;;;;;;;;7.80;96.90;;;;;;5077015;28;19995;-70
2021/12/13 00:24:04;;;;;;;;;;;7.80;96.90;;;;;;5087744;28;19908;-70
2021/12/13 00:26:31;;;;;;;;;;;7.80;96.90;;;;;;5087053;28;19911;-70
2021/12/13 00:28:57;;;;;;;;;;;7.80;96.80;;;;;;5084713;28;19917;-70
2021/12/13 00:31:26;;;;;;;;;;;7.80;96.90;;;;;;5094423;28;19910;-70
2021/12/13 00:34:08;;;;;;;;;;;7.80;96.90;;;;;;5088198;28;19919;-70
2021/12/13 00:36:52;;;;;;;;;;;7.80;96.90;;;;;;5089580;28;19915;-70
2021/12/13 00:39:23;;;;;;;;;;;7.80;96.90;;;;;;5083131;28;20519;-70
2021/12/13 00:41:49;;;;;;;;;;;7.80;96.90;;;;;;5087537;28;19939;-70
2021/12/13 00:44:20;;;;;;;;;;;7.90;97.00;;;;;;5088255;28;19920;-70
2021/12/13 00:46:47;;;;;;;;;;;7.90;97.00;;;;;;5086838;28;19922;-70
2021/12/13 00:49:14;;;;;;;;;;;7.80;97.00;;;;;;5087262;28;19940;-70
2021/12/13 00:51:43;;;;;;;;;;;7.90;97.10;;;;;;5091125;28;19912;-70
2021/12/13 00:54:23;;;;;;;;;;;7.90;97.00;;;;;;5088055;28;20341;-70
2021/12/13 00:56:48;;;;;;;;;;;7.90;97.00;;;;;;5087207;28;19939;-70
2021/12/13 00:59:20;;;;;;;;;;;7.90;97.00;;;;;;5087333;28;19916;-70
2021/12/13 01:01:49;;;;;;;;;;;7.90;96.90;;;;;;5084212;28;19943;-70
2021/12/13 01:04:15;;;;;;;;;;;7.90;97.00;;;;;;5089923;28;19908;-70
2021/12/13 01:06:56;;;;;;;;;;;7.90;97.00;;;;;;5089347;28;19920;-70
2021/12/13 01:09:40;;;;;;;;;;;7.80;97.20;;;;;;5084993;28;20361;-70
2021/12/13 01:12:07;;;;;;;;;;;7.90;96.90;;;;;;5090888;28;20320;-70
2021/12/13 01:14:43;;;;;;;;;;;7.90;97.00;;;;;;5085357;28;19912;-70
2021/12/13 01:17:41;;;;;;;;;;;7.90;96.90;;;;;;5085782;28;20379;-71
2021/12/13 01:20:16;;;;;;;;;;;7.90;96.90;;;;;;5085462;28;19955;-70
2021/12/13 01:22:53;;;;;;;;;;;7.90;97.00;;;;;;5087995;28;19916;-70
2021/12/13 01:25:39;;;;;;;;;;;7.90;97.00;;;;;;5084672;28;19916;-70
2021/12/13 01:28:08;;;;;;;;;;;7.90;97.00;;;;;;5087428;28;19920;-70
2021/12/13 01:30:35;;;;;;;;;;;7.90;97.00;;;;;;5080917;28;19916;-70
2021/12/13 01:33:03;;;;;;;;;;;7.90;97.00;;;;;;5104208;28;20413;-70
2021/12/13 01:35:30;;;;;;;;;;;7.90;97.00;;;;;;5086957;28;20003;-70
2021/12/13 01:38:02;;;;;;;;;;;7.90;97.10;;;;;;5087644;28;19977;-71
2021/12/13 01:40:30;;;;;;;;;;;7.90;97.00;;;;;;5084823;28;20032;-70
2021/12/13 01:43:15;;;;;;;;;;;7.90;97.10;;;;;;5086164;28;19913;-70
2021/12/13 01:45:43;;;;;;;;;;;7.90;97.10;;;;;;5086899;28;19916;-70
2021/12/13 01:48:20;;;;;;;;;;;7.90;97.10;;;;;;5084980;28;19919;-70
2021/12/13 01:50:51;;;;;;;;;;;7.90;97.00;;;;;;5079688;28;19999;-70
2021/12/13 01:53:18;;;;;;;;;;;7.90;97.00;;;;;;5092315;28;19912;-70
2021/12/13 01:55:47;;;;;;;;;;;7.90;97.10;;;;;;5088023;28;19912;-70
2021/12/13 02:01:14;;;;;;;;;;;7.90;97.00;;;;;;5087644;28;19992;-70
2021/12/13 02:03:55;;;;;;;;;;;7.90;97.00;;;;;;5084732;28;20353;-70
2021/12/13 02:06:41;;;;;;;;;;;7.90;97.00;;;;;;5102492;27;19947;-71
2021/12/13 02:09:09;;;;;;;;;;;7.90;97.00;;;;;;5086786;28;19920;-70
2021/12/13 02:11:35;;;;;;;;;;;7.90;97.00;;;;;;5087094;28;20009;-70
2021/12/13 02:14:14;;;;;;;;;;;7.90;97.10;;;;;;5091376;28;19923;-70
2021/12/13 02:17:00;;;;;;;;;;;7.90;97.10;;;;;;5094612;28;19908;-70
2021/12/13 02:19:32;;;;;;;;;;;7.90;97.10;;;;;;5090547;28;20452;-70
2021/12/13 02:22:05;;;;;;;;;;;7.90;97.10;;;;;;5124635;27;19919;-70
2021/12/13 02:24:30;;;;;;;;;;;7.80;97.00;;;;;;5095738;28;20001;-70
2021/12/13 02:26:58;;;;;;;;;;;7.90;97.30;;;;;;5096378;28;20361;-70
2021/12/13 02:29:34;;;;;;;;;;;7.90;97.00;;;;;;5093655;28;19965;-70
2021/12/13 02:31:59;;;;;;;;;;;7.90;97.00;;;;;;5087970;28;19920;-70
2021/12/13 02:34:25;;;;;;;;;;;7.90;97.10;;;;;;5098811;28;19958;-70
2021/12/13 02:36:53;;;;;;;;;;;7.80;97.00;;;;;;5091589;28;19912;-70
2021/12/13 02:39:21;;;;;;;;;;;7.80;96.90;;;;;;5087770;28;20549;-70
2021/12/13 02:41:47;;;;;;;;;;;7.80;96.90;;;;;;5090534;28;19958;-70
2021/12/13 02:44:22;;;;;;;;;;;7.90;97.00;;;;;;5086770;28;19960;-70
2021/12/13 02:46:47;;;;;;;;;;;7.80;97.00;;;;;;5086617;28;20683;-71
2021/12/13 02:49:15;;;;;;;;;;;7.80;97.00;;;;;;5088477;28;20007;-71
2021/12/13 02:51:46;;;;;;;;;;;7.80;97.00;;;;;;5087972;28;20506;-70
2021/12/13 02:54:21;;;;;;;;;;;7.80;96.90;;;;;;5092882;28;20504;-70
2021/12/13 02:57:06;;;;;;;;;;;7.80;96.90;;;;;;5090943;28;19966;-70
2021/12/13 02:59:32;;;;;;;;;;;7.80;96.90;;;;;;5084542;28;20012;-70
2021/12/13 03:02:21;;;;;;;;;;;7.80;96.90;;;;;;5091465;28;20552;-70
2021/12/13 03:04:47;;;;;;;;;;;7.80;96.90;;;;;;5081049;28;19916;-70
2021/12/13 03:07:13;;;;;;;;;;;7.90;97.00;;;;;;5088454;28;19919;-70
2021/12/13 03:09:40;;;;;;;;;;;7.80;96.90;;;;;;5083654;28;19909;-70
2021/12/13 03:12:07;;;;;;;;;;;7.80;96.90;;;;;;5087948;28;19916;-70
2021/12/13 03:14:38;;;;;;;;;;;7.80;97.00;;;;;;5088232;28;19912;-70
2021/12/13 03:17:07;;;;;;;;;;;7.80;96.90;;;;;;5088459;28;19990;-70
2021/12/13 03:19:38;;;;;;;;;;;7.80;96.90;;;;;;5086111;28;19908;-70
2021/12/13 03:22:23;;;;;;;;;;;7.80;96.90;;;;;;5086744;28;19912;-70
2021/12/13 03:24:48;;;;;;;;;;;7.80;96.90;;;;;;5079421;28;19909;-71
2021/12/13 03:27:25;;;;;;;;;;;7.80;96.90;;;;;;5086631;28;19912;-70
2021/12/13 03:29:58;;;;;;;;;;;7.80;96.90;;;;;;5101121;28;19908;-70
2021/12/13 03:32:24;;;;;;;;;;;7.80;96.90;;;;;;5084173;28;19908;-70
2021/12/13 03:35:01;;;;;;;;;;;7.80;96.90;;;;;;5086812;28;19934;-70
2021/12/13 03:37:27;;;;;;;;;;;7.80;96.90;;;;;;5085548;28;19908;-70
2021/12/13 03:39:56;;;;;;;;;;;7.80;96.90;;;;;;5084342;28;19947;-71
2021/12/13 03:42:27;;;;;;;;;;;7.80;96.90;;;;;;5090546;28;19912;-70
2021/12/13 03:44:54;;;;;;;;;;;7.80;96.90;;;;;;5022972;28;1777321;-70
2021/12/13 03:47:33;;;;;;;;;;;7.80;96.90;;;;;;5086917;28;19920;-70
2021/12/13 03:50:00;;;;;;;;;;;7.80;96.90;;;;;;5084344;28;19912;-70
2021/12/13 03:52:28;;;;;;;;;;;7.80;96.90;;;;;;5084957;28;19958;-70
2021/12/13 03:54:55;;;;;;;;;;;7.80;96.90;;;;;;5088433;28;19952;-70
2021/12/13 03:57:21;;;;;;;;;;;7.80;97.00;;;;;;5085495;28;19924;-70
2021/12/13 03:59:48;;;;;;;;;;;7.80;97.00;;;;;;5085296;28;20010;-70
2021/12/13 04:02:25;;;;;;;;;;;7.70;97.00;;;;;;5086896;28;19923;-71
2021/12/13 04:04:52;;;;;;;;;;;7.70;97.00;;;;;;5081950;28;19912;-70
2021/12/13 04:07:20;;;;;;;;;;;7.80;96.90;;;;;;5088764;28;19908;-70
2021/12/13 04:09:48;;;;;;;;;;;7.70;96.90;;;;;;5076631;28;19968;-71
2021/12/13 04:12:15;;;;;;;;;;;7.80;96.90;;;;;;5088257;28;20011;-71
2021/12/13 04:14:44;;;;;;;;;;;7.70;96.90;;;;;;5077941;28;19948;-70
2021/12/13 04:17:43;;;;;;;;;;;7.70;96.90;;;;;;5088235;28;19908;-70
2021/12/13 04:20:20;;;;;;;;;;;7.70;96.90;;;;;;5088785;28;19916;-70
2021/12/13 04:22:48;;;;;;;;;;;7.70;96.90;;;;;;5085097;28;19923;-70
2021/12/13 04:25:16;;;;;;;;;;;7.70;96.90;;;;;;5093240;28;19923;-70
2021/12/13 04:27:44;;;;;;;;;;;7.70;96.90;;;;;;5082605;28;19951;-70
2021/12/13 04:30:15;;;;;;;;;;;7.70;96.90;;;;;;5086017;28;19928;-70
2021/12/13 04:32:43;;;;;;;;;;;7.70;96.90;;;;;;5086376;28;20382;-71
2021/12/13 04:35:10;;;;;;;;;;;7.70;96.90;;;;;;5087142;28;20368;-70
2021/12/13 04:37:38;;;;;;;;;;;7.70;96.90;;;;;;5090559;28;19908;-70
2021/12/13 04:40:06;;;;;;;;;;;7.70;96.90;;;;;;5079184;28;19923;-70
2021/12/13 04:42:32;;;;;;;;;;;7.70;97.00;;;;;;5107097;27;20266;-70
2021/12/13 04:45:00;;;;;;;;;;;7.70;96.90;;;;;;5084183;28;19926;-70
2021/12/13 04:47:25;;;;;;;;;;;7.70;96.90;;;;;;5087527;28;19916;-70
2021/12/13 04:50:04;;;;;;;;;;;7.70;96.90;;;;;;5085764;28;19923;-70
2021/12/13 04:52:31;;;;;;;;;;;7.70;96.90;;;;;;5085994;28;20375;-70
2021/12/13 04:54:56;;;;;;;;;;;7.70;97.00;;;;;;5078354;28;19924;-71
2021/12/13 04:57:23;;;;;;;;;;;7.70;96.90;;;;;;5091276;28;19914;-70
2021/12/13 04:59:50;;;;;;;;;;;7.70;96.90;;;;;;5080804;28;19912;-70
2021/12/13 05:02:15;;;;;;;;;;;7.70;96.90;;;;;;5088749;28;19962;-70
2021/12/13 05:04:41;;;;;;;;;;;7.70;96.90;;;;;;5079785;28;19916;-70
2021/12/13 05:07:07;;;;;;;;;;;7.70;96.90;;;;;;5087283;28;19920;-71
2021/12/13 05:09:33;;;;;;;;;;;7.70;96.90;;;;;;5080534;28;19912;-70
2021/12/13 05:12:01;;;;;;;;;;;7.70;96.90;;;;;;5088721;28;20331;-70
2021/12/13 05:14:33;;;;;;;;;;;7.60;96.90;;;;;;5085407;28;19916;-71
2021/12/13 05:17:05;;;;;;;;;;;7.70;96.90;;;;;;5085994;28;21083;-70
2021/12/13 05:19:36;;;;;;;;;;;7.70;96.90;;;;;;5079512;28;19920;-70
2021/12/13 05:22:03;;;;;;;;;;;7.70;96.90;;;;;;5091073;28;19971;-70
2021/12/13 05:24:30;;;;;;;;;;;7.60;96.90;;;;;;5085367;28;19922;-70
2021/12/13 05:26:57;;;;;;;;;;;7.60;96.90;;;;;;5084318;28;19916;-70
2021/12/13 05:29:26;;;;;;;;;;;7.60;96.90;;;;;;5086968;28;19919;-70
2021/12/13 05:31:53;;;;;;;;;;;7.60;96.90;;;;;;5085772;28;19915;-70
2021/12/13 05:34:18;;;;;;;;;;;7.60;96.90;;;;;;5086424;28;19916;-70
2021/12/13 05:36:52;;;;;;;;;;;7.60;96.90;;;;;;5085242;28;20300;-70
2021/12/13 05:39:17;;;;;;;;;;;7.60;97.00;;;;;;5075034;28;19938;-70
2021/12/13 05:42:09;;;;;;;;;;;7.60;96.90;;;;;;5088277;28;20540;-70
2021/12/13 05:44:36;;;;;;;;;;;7.60;96.90;;;;;;5080815;28;19920;-70
2021/12/13 05:47:07;;;;;;;;;;;7.60;96.90;;;;;;5083411;28;19908;-70
2021/12/13 05:49:41;;;;;;;;;;;7.60;96.90;;;;;;5080613;28;19938;-70
2021/12/13 05:52:07;;;;;;;;;;;7.60;96.90;;;;;;5084901;28;19939;-70
2021/12/13 05:54:34;;;;;;;;;;;7.60;96.90;;;;;;5086500;28;20318;-70
2021/12/13 05:57:04;;;;;;;;;;;7.60;96.90;;;;;;5083019;28;19916;-71
2021/12/13 05:59:29;;;;;;;;;;;7.60;96.90;;;;;;5088116;28;19916;-70
2021/12/13 06:02:08;;;;;;;;;;;7.60;96.90;;;;;;5080188;28;19919;-70
2021/12/13 06:04:33;;;;;;;;;;;7.60;96.90;;;;;;5080366;28;19919;-70
2021/12/13 06:06:59;;;;;;;;;;;7.60;96.90;;;;;;5084374;28;19924;-70
2021/12/13 06:09:45;;;;;;;;;;;7.60;96.90;;;;;;5086651;28;19912;-70
2021/12/13 06:12:13;;;;;;;;;;;7.60;96.90;;;;;;5087238;28;19912;-70
2021/12/13 06:14:39;;;;;;;;;;;7.60;96.90;;;;;;5084372;28;20089;-70
2021/12/13 06:17:07;;;;;;;;;;;7.60;96.90;;;;;;5081500;28;19939;-70
2021/12/13 06:19:35;;;;;;;;;;;7.60;96.90;;;;;;5084980;28;19916;-70
2021/12/13 06:22:06;;;;;;;;;;;7.60;96.90;;;;;;5086047;28;19923;-70
2021/12/13 06:24:38;;;;;;;;;;;7.60;96.90;;;;;;5095144;28;19930;-70
2021/12/13 06:27:06;;;;;;;;;;;7.60;96.90;;;;;;5086665;28;19914;-70
2021/12/13 06:29:50;;;;;;;;;;;7.60;96.90;;;;;;5093949;28;19912;-70
2021/12/13 06:32:24;;;;;;;;;;;7.60;96.90;;;;;;5100022;28;20274;-71
2021/12/13 06:34:49;;;;;;;;;;;7.60;96.90;;;;;;5083987;28;20003;-70
2021/12/13 06:37:21;;;;;;;;;;;7.60;96.90;;;;;;5088204;28;20015;-70
2021/12/13 06:39:47;;;;;;;;;;;7.50;96.90;;;;;;5090062;28;19927;-70
2021/12/13 06:42:14;;;;;;;;;;;7.50;96.90;;;;;;5089237;28;19912;-71
2021/12/13 06:44:42;;;;;;;;;;;7.60;96.90;;;;;;5085396;28;19920;-70
2021/12/13 06:47:08;;;;;;;;;;;7.50;96.90;;;;;;5090099;28;19999;-70
2021/12/13 06:49:33;;;;;;;;;;;7.60;96.90;;;;;;5093815;28;20018;-70
2021/12/13 06:52:03;;;;;;;;;;;7.60;96.90;;;;;;5089047;28;19908;-70
2021/12/13 06:54:34;;;;;;;;;;;7.60;96.90;;;;;;5085982;28;19937;-70
2021/12/13 06:57:15;;;;;;;;;;;7.50;96.90;;;;;;5089112;28;19911;-70
2021/12/13 06:59:48;;;;;;;;;;;7.50;96.90;;;;;;5087087;28;19912;-71
2021/12/13 07:02:23;;;;;;;;;;;7.50;96.90;;;;;;5086946;28;20412;-70
2021/12/13 07:04:51;;;;;;;;;;;7.50;96.90;;;;;;5085467;28;19917;-70
2021/12/13 07:07:17;;;;;;;;;;;7.50;96.90;;;;;;5095332;28;19912;-70
2021/12/13 07:09:54;;;;;;;;;;;7.50;96.90;;;;;;5084195;28;19912;-70
2021/12/13 07:12:20;;;;;;;;;;;7.50;96.80;;;;;;5089392;28;19908;-70
2021/12/13 07:14:46;;;;;;;;;;;7.60;96.90;;;;;;5087546;28;20006;-70
2021/12/13 07:17:22;;;;;;;;;;;7.50;96.90;;;;;;5092372;28;20261;-70
2021/12/13 07:19:49;;;;;;;;;;;7.50;96.90;;;;;;5083915;28;20002;-70
2021/12/13 07:22:20;;;;;;;;;;;7.50;96.90;;;;;;5089740;28;19919;-70
2021/12/13 07:24:47;;;;;;;;;;;7.50;96.90;;;;;;5088527;28;19923;-70
2021/12/13 07:27:16;;;;;;;;;;;7.50;96.90;;;;;;5085761;28;19909;-70
2021/12/13 07:29:48;;;;;;;;;;;7.50;96.90;;;;;;5089181;28;19920;-70
2021/12/13 07:32:16;;;;;;;;;;;7.50;96.90;;;;;;5092452;28;19916;-70
2021/12/13 07:34:54;;;;;;;;;;;7.50;96.80;;;;;;5083880;28;19920;-70
2021/12/13 07:37:40;;;;;;;;;;;7.50;96.90;;;;;;5089523;28;19917;-70
2021/12/13 07:40:20;;;;;;;;;;;7.50;96.80;;;;;;5081033;28;19927;-70
2021/12/13 07:43:09;;;;;;;;;;;7.50;96.80;;;;;;5081291;28;20014;-70
2021/12/13 07:45:40;;;;;;;;;;;7.50;96.80;;;;;;5082626;28;19923;-70
2021/12/13 07:48:07;;;;;;;;;;;7.50;96.80;;;;;;5119372;27;19908;-70
2021/12/13 07:50:33;;;;;;;;;;;7.50;96.80;;;;;;5089280;28;19916;-70
2021/12/13 07:53:01;;;;;;;;;;;7.50;96.80;;;;;;5089853;28;20722;-70
2021/12/13 07:55:29;;;;;;;;;;;7.50;96.80;;;;;;5100393;27;20416;-70
2021/12/13 07:57:55;;;;;;;;;;;7.50;96.80;;;;;;5094934;28;19916;-70
2021/12/13 08:00:50;;;;;;;;;;;7.50;96.80;;;;;;5093235;28;19962;-70
2021/12/13 08:03:23;;;;;;;;;;;7.50;96.80;;;;;;5080551;28;19912;-70
2021/12/13 08:05:52;;;;;;;;;;;7.50;96.90;;;;;;5090746;28;20380;-70
2021/12/13 08:08:21;;;;;;;;;;;7.50;96.80;;;;;;5089353;28;23532;-70
2021/12/13 08:10:48;;;;;;;;;;;7.50;96.80;;;;;;5091764;28;19958;-70
2021/12/13 08:13:17;;;;;;;;;;;7.50;96.80;;;;;;5083492;28;20300;-71
2021/12/13 08:16:04;;;;;;;;;;;7.50;96.80;;;;;;5089515;28;19961;-70
2021/12/13 08:18:32;;;;;;;;;;;7.50;96.80;;;;;;5086205;28;19930;-70
2021/12/13 08:21:05;;;;;;;;;;;7.50;96.80;;;;;;5090386;28;20010;-70
2021/12/13 08:23:36;;;;;;;;;;;7.50;96.80;;;;;;5089727;28;19916;-70
2021/12/13 08:26:02;;;;;;;;;;;7.50;96.70;;;;;;5087996;28;19999;-70
2021/12/13 08:28:33;;;;;;;;;;;7.50;96.70;;;;;;5090557;28;19908;-70
2021/12/13 08:31:06;;;;;;;;;;;7.50;96.70;;;;;;5089463;28;19920;-70
2021/12/13 08:33:31;;;;;;;;;;;7.50;96.70;;;;;;5083414;28;19912;-70
2021/12/13 08:36:02;;;;;;;;;;;7.50;96.70;;;;;;5089522;28;19919;-70
2021/12/13 08:38:31;;;;;;;;;;;7.50;96.70;;;;;;5091356;28;20002;-70
2021/12/13 08:40:58;;;;;;;;;;;7.50;96.70;;;;;;5104008;27;19912;-70
2021/12/13 08:43:36;;;;;;;;;;;7.50;96.70;;;;;;5086440;28;19920;-70
2021/12/13 08:46:03;;;;;;;;;;;7.50;96.70;;;;;;5088757;28;19958;-70
2021/12/13 08:48:28;;;;;;;;;;;7.50;96.70;;;;;;5086452;28;19962;-70
2021/12/13 08:50:57;;;;;;;;;;;7.50;96.70;;;;;;5091172;28;19912;-70
2021/12/13 08:53:24;;;;;;;;;;;7.50;96.70;;;;;;5081617;28;19918;-70
2021/12/13 08:56:13;;;;;;;;;;;7.50;96.70;;;;;;5088281;28;19955;-70
2021/12/13 08:58:58;;;;;;;;;;;7.50;96.70;;;;;;5085448;27;19953;-70
2021/12/13 09:01:28;;;;;;;;;;;7.60;96.70;;;;;;5083289;28;20288;-70
2021/12/13 09:03:54;;;;;;;;;;;7.50;96.70;;;;;;5087370;28;19912;-70
2021/12/13 09:06:25;;;;;;;;;;;7.50;96.70;;;;;;5082275;28;19920;-70
2021/12/13 09:09:04;;;;;;;;;;;7.50;96.70;;;;;;5088428;28;19920;-70
2021/12/13 09:11:33;;;;;;;;;;;7.50;96.60;;;;;;5084691;28;19999;-70
2021/12/13 09:14:11;;;;;;;;;;;7.50;96.60;;;;;;5079929;28;20019;-70
2021/12/13 09:16:37;;;;;;;;;;;7.60;96.60;;;;;;5083321;28;20002;-70
2021/12/13 09:19:06;;;;;;;;;;;7.60;96.60;;;;;;5081205;28;19998;-70
2021/12/13 09:21:32;;;;;;;;;;;7.60;96.60;;;;;;5087649;28;19936;-70
2021/12/13 09:23:57;;;;;;;;;;;7.60;96.60;;;;;;5083476;28;19954;-70
2021/12/13 09:26:25;;;;;;;;;;;7.60;96.60;;;;;;5089891;28;19943;-70
2021/12/13 09:28:59;;;;;;;;;;;7.60;96.70;;;;;;5088855;28;19957;-70
2021/12/13 09:31:24;;;;;;;;;;;7.50;96.90;;;;;;5087126;28;19920;-70
2021/12/13 09:33:52;;;;;;;;;;;7.60;96.70;;;;;;5083989;28;19916;-70
2021/12/13 09:36:24;;;;;;;;;;;7.60;96.70;;;;;;5083921;28;19966;-70
2021/12/13 09:38:58;;;;;;;;;;;7.60;97.00;;;;;;5085346;28;19912;-70
2021/12/13 09:41:33;;;;;;;;;;;7.60;96.80;;;;;;5102367;28;19913;-70
2021/12/13 09:43:58;;;;;;;;;;;7.60;96.70;;;;;;5088268;28;19932;-71
2021/12/13 09:46:33;;;;;;;;;;;7.60;96.70;;;;;;5087888;28;19950;-70
2021/12/13 09:49:03;;;;;;;;;;;7.60;96.80;;;;;;5086419;28;19916;-70
2021/12/13 09:51:32;;;;;;;;;;;7.70;96.70;;;;;;5085147;28;19912;-70
2021/12/13 09:54:00;;;;;;;;;;;7.60;96.70;;;;;;5083910;28;19921;-70
2021/12/13 09:56:28;;;;;;;;;;;7.60;96.70;;;;;;5082862;28;19916;-70
2021/12/13 09:58:59;;;;;;;;;;;7.60;96.70;;;;;;5081806;28;20001;-70
2021/12/13 10:01:33;;;;;;;;;;;7.60;96.70;;;;;;5086829;28;19916;-70
2021/12/13 10:04:08;;;;;;;;;;;7.70;96.80;;;;;;5087133;28;19923;-70
2021/12/13 10:06:37;;;;;;;;;;;7.70;96.80;;;;;;5084563;28;19961;-70
2021/12/13 10:09:08;;;;;;;;;;;7.60;96.70;;;;;;5083300;28;20012;-70
2021/12/13 10:11:36;;;;;;;;;;;7.60;96.70;;;;;;5088652;28;19911;-70
2021/12/13 10:14:03;;;;;;;;;;;7.70;96.80;;;;;;5090254;28;19946;-70
2021/12/13 10:16:31;;;;;;;;;;;7.70;96.70;;;;;;5079559;28;19916;-70
2021/12/13 10:18:57;;;;;;;;;;;7.70;96.80;;;;;;5087172;28;20492;-70
2021/12/13 10:21:42;;;;;;;;;;;7.70;96.70;;;;;;5086041;28;19916;-70
2021/12/13 10:24:11;;;;;;;;;;;7.70;96.80;;;;;;5103542;27;19923;-70
2021/12/13 10:26:39;;;;;;;;;;;7.70;96.80;;;;;;5088104;28;20967;-70
2021/12/13 10:29:06;;;;;;;;;;;7.70;96.80;;;;;;5092350;28;19927;-70
2021/12/13 10:31:35;;;;;;;;;;;7.70;96.70;;;;;;5085931;28;19948;-70
2021/12/13 10:34:03;;;;;;;;;;;7.70;96.80;;;;;;5092090;28;19916;-70
2021/12/13 10:36:29;;;;;;;;;;;7.70;96.70;;;;;;5086411;28;19964;-70
2021/12/13 10:38:58;;;;;;;;;;;7.70;96.80;;;;;;5087425;28;19908;-70
2021/12/13 10:41:43;;;;;;;;;;;7.70;96.80;;;;;;5089583;28;19916;-70
2021/12/13 10:44:12;;;;;;;;;;;7.80;96.80;;;;;;5086891;28;20463;-70
2021/12/13 10:46:40;;;;;;;;;;;7.80;96.90;;;;;;5082233;28;19908;-70
2021/12/13 10:49:08;;;;;;;;;;;7.80;96.80;;;;;;5086593;28;19916;-70
2021/12/13 10:51:36;;;;;;;;;;;7.80;96.90;;;;;;5086909;28;19908;-70
2021/12/13 10:54:05;;;;;;;;;;;7.80;96.80;;;;;;5084437;28;19927;-70
2021/12/13 10:56:34;;;;;;;;;;;7.80;96.80;;;;;;5085747;28;19912;-70
2021/12/13 10:59:04;;;;;;;;;;;7.80;96.80;;;;;;5085522;28;19972;-70
2021/12/13 11:01:35;;;;;;;;;;;7.80;96.80;;;;;;5092400;28;19951;-70
2021/12/13 11:04:03;;;;;;;;;;;7.80;96.80;;;;;;5092028;28;19927;-70
2021/12/13 11:06:29;;;;;;;;;;;7.80;96.80;;;;;;5090773;28;19916;-70
2021/12/13 11:08:55;;;;;;;;;;;7.80;96.80;;;;;;5087032;28;20008;-70
2021/12/13 11:11:23;;;;;;;;;;;7.80;96.80;;;;;;5093143;28;19977;-70
2021/12/13 11:13:50;;;;;;;;;;;7.80;96.70;;;;;;5089018;28;19919;-70
2021/12/13 11:16:36;;;;;;;;;;;7.80;96.80;;;;;;5093143;28;19977;-70
2021/12/13 11:19:03;;;;;;;;;;;7.80;96.70;;;;;;5092751;28;20007;-70
2021/12/13 11:21:30;;;;;;;;;;;7.80;96.80;;;;;;5092379;28;19955;-70
2021/12/13 11:23:56;;;;;;;;;;;7.80;96.80;;;;;;5090932;28;19926;-70
2021/12/13 11:26:24;;;;;;;;;;;7.80;96.80;;;;;;5091563;28;19958;-70
2021/12/13 11:28:49;;;;;;;;;;;7.80;96.80;;;;;;5087447;28;20010;-70
2021/12/13 11:31:37;;;;;;;;;;;7.90;96.80;;;;;;5089582;28;20041;-70
2021/12/13 11:34:19;;;;;;;;;;;7.90;96.80;;;;;;5087886;28;19924;-70
2021/12/13 11:36:47;;;;;;;;;;;7.80;96.80;;;;;;5091252;28;19920;-70
2021/12/13 11:39:12;;;;;;;;;;;7.90;96.80;;;;;;5090378;28;19916;-71
2021/12/13 11:41:53;;;;;;;;;;;7.90;96.80;;;;;;5087143;28;19915;-70
2021/12/13 11:44:40;;;;;;;;;;;7.90;96.80;;;;;;5103245;27;19924;-71
2021/12/13 11:47:14;;;;;;;;;;;7.90;96.80;;;;;;5096251;28;20027;-70
2021/12/13 11:49:46;;;;;;;;;;;7.90;96.80;;;;;;5090433;28;19908;-70
2021/12/13 11:52:31;;;;;;;;;;;7.90;96.80;;;;;;5099454;27;19923;-70
2021/12/13 11:54:59;;;;;;;;;;;7.90;96.80;;;;;;5107381;27;19916;-70
2021/12/13 11:57:27;;;;;;;;;;;7.90;96.80;;;;;;5103314;28;20369;-70
2021/12/13 12:00:02;;;;;;;;;;;7.90;96.80;;;;;;5092247;28;19915;-71
2021/12/13 12:02:27;;;;;;;;;;;7.90;96.80;;;;;;5101290;28;19959;-70
2021/12/13 12:05:05;;;;;;;;;;;7.90;96.80;;;;;;5090354;28;19940;-70
2021/12/13 12:07:50;;;;;;;;;;;7.90;96.80;;;;;;5096622;28;19920;-70
2021/12/13 12:10:34;;;;;;;;;;;7.90;96.80;;;;;;5090139;28;19916;-70
2021/12/13 12:13:26;;;;;;;;;;;8.00;96.80;;;;;;5089720;28;20393;-70
2021/12/13 12:15:52;;;;;;;;;;;8.00;97.10;;;;;;5083035;28;19915;-70
2021/12/13 12:18:19;;;;;;;;;;;8.00;96.80;;;;;;5093329;28;19911;-70
2021/12/13 12:20:53;;;;;;;;;;;8.00;96.90;;;;;;5090542;28;19986;-70
2021/12/13 12:23:25;;;;;;;;;;;8.00;96.80;;;;;;5092066;28;19920;-70
2021/12/13 12:25:50;;;;;;;;;;;8.00;96.90;;;;;;5094221;28;19919;-70
2021/12/13 12:28:17;;;;;;;;;;;8.00;96.80;;;;;;5093604;28;19920;-70
2021/12/13 12:30:44;;;;;;;;;;;8.00;96.90;;;;;;5097699;28;19912;-70
2021/12/13 12:33:11;;;;;;;;;;;8.00;96.90;;;;;;5087613;28;19912;-70
2021/12/13 12:35:42;;;;;;;;;;;8.00;96.90;;;;;;5102233;28;19915;-70
2021/12/13 12:38:17;;;;;;;;;;;8.00;96.80;;;;;;5093383;28;20309;-70
2021/12/13 12:40:45;;;;;;;;;;;8.00;96.80;;;;;;5089097;28;19916;-70
2021/12/13 12:43:13;;;;;;;;;;;8.00;96.80;;;;;;5088937;28;20006;-70
2021/12/13 12:45:38;;;;;;;;;;;8.00;96.80;;;;;;5090601;28;19934;-70
2021/12/13 12:48:05;;;;;;;;;;;8.10;96.90;;;;;;5087317;28;19912;-70
2021/12/13 12:50:34;;;;;;;;;;;8.00;97.00;;;;;;5089549;28;19912;-70
2021/12/13 12:53:02;;;;;;;;;;;8.10;96.80;;;;;;5086416;28;19916;-70
2021/12/13 12:55:40;;;;;;;;;;;8.10;96.80;;;;;;5099510;28;19915;-70
2021/12/13 12:58:07;;;;;;;;;;;8.10;96.80;;;;;;5100039;27;20432;-70
2021/12/13 13:00:33;;;;;;;;;;;8.10;96.80;;;;;;5094821;28;19948;-70
2021/12/13 13:02:59;;;;;;;;;;;8.10;96.80;;;;;;5087276;28;19947;-70
2021/12/13 13:05:27;;;;;;;;;;;8.10;96.90;;;;;;5089074;28;19908;-70
2021/12/13 13:07:53;;;;;;;;;;;8.20;96.90;;;;;;5089767;28;19969;-70
2021/12/13 13:12:58;;;;;;;;;;;8.20;96.80;;;;;;5086661;28;19920;-70
2021/12/13 13:15:26;;;;;;;;;;;8.20;96.70;;;;;;5090804;28;19915;-70
2021/12/13 13:17:59;;;;;;;;;;;8.30;96.80;;;;;;5086607;28;20687;-70
2021/12/13 13:20:38;;;;;;;;;;;8.30;96.80;;;;;;5099921;28;19918;-70
2021/12/13 13:23:04;;;;;;;;;;;8.30;96.80;;;;;;5088711;28;20003;-70
2021/12/13 13:25:32;;;;;;;;;;;8.30;96.70;;;;;;5099489;28;19998;-70
2021/12/13 13:28:01;;;;;;;;;;;8.30;96.80;;;;;;5090865;28;20395;-70
2021/12/13 13:30:26;;;;;;;;;;;8.30;96.80;;;;;;5094827;28;19920;-70
2021/12/13 13:32:52;;;;;;;;;;;8.30;96.80;;;;;;5090158;28;19930;-70
2021/12/13 13:35:18;;;;;;;;;;;8.40;96.80;;;;;;5088091;28;19970;-70
2021/12/13 13:37:44;;;;;;;;;;;8.40;97.20;;;;;;5093539;28;19922;-71
2021/12/13 13:40:12;;;;;;;;;;;8.40;96.90;;;;;;5088246;28;19955;-70
2021/12/13 13:42:42;;;;;;;;;;;8.40;96.80;;;;;;5087021;28;19936;-70
2021/12/13 13:45:07;;;;;;;;;;;8.30;96.80;;;;;;5093267;28;20254;-70
2021/12/13 13:47:38;;;;;;;;;;;8.40;96.80;;;;;;5097318;28;19919;-70
2021/12/13 13:50:15;;;;;;;;;;;8.40;97.10;;;;;;5098360;28;20002;-71
2021/12/13 13:52:41;;;;;;;;;;;8.30;96.80;;;;;;5103252;28;19912;-70
2021/12/13 13:55:19;;;;;;;;;;;8.30;96.80;;;;;;5096998;28;19920;-71
2021/12/13 13:57:51;;;;;;;;;;;8.40;96.70;;;;;;5091110;28;20003;-70
2021/12/13 14:00:16;;;;;;;;;;;8.40;96.80;;;;;;5100571;28;19922;-71
2021/12/13 14:02:42;;;;;;;;;;;8.40;96.80;;;;;;5095397;27;19912;-70
2021/12/13 14:05:12;;;;;;;;;;;8.30;96.70;;;;;;5101434;28;19919;-70
2021/12/13 14:07:38;;;;;;;;;;;8.40;96.70;;;;;;5092636;28;19923;-70
2021/12/13 14:10:16;;;;;;;;;;;8.40;96.70;;;;;;5097421;28;19911;-70
2021/12/13 14:12:46;;;;;;;;;;;8.30;96.70;;;;;;5090188;28;19912;-70
2021/12/13 14:15:16;;;;;;;;;;;8.30;96.70;;;;;;5088001;28;19919;-70
2021/12/13 14:17:54;;;;;;;;;;;8.30;96.70;;;;;;5089934;28;20395;-70
2021/12/13 14:20:25;;;;;;;;;;;8.30;96.70;;;;;;5084847;28;19965;-70
2021/12/13 14:22:54;;;;;;;;;;;8.30;96.80;;;;;;5087397;28;20002;-70
2021/12/13 14:25:27;;;;;;;;;;;8.30;96.70;;;;;;5099307;28;19949;-70
2021/12/13 14:27:53;;;;;;;;;;;8.30;96.80;;;;;;5093787;28;19959;-70
2021/12/13 14:30:20;;;;;;;;;;;8.30;96.80;;;;;;5099127;28;20000;-70
2021/12/13 14:32:46;;;;;;;;;;;8.30;96.80;;;;;;5091344;28;20332;-70
2021/12/13 14:35:12;;;;;;;;;;;8.30;96.80;;;;;;5092133;28;19920;-70
2021/12/13 14:37:37;;;;;;;;;;;8.30;96.70;;;;;;5092234;28;19962;-70
2021/12/13 14:40:03;;;;;;;;;;;8.30;96.80;;;;;;5099876;28;19919;-70
2021/12/13 14:42:30;;;;;;;;;;;8.30;96.80;;;;;;5088808;28;20577;-70
2021/12/13 14:44:57;;;;;;;;;;;8.20;96.70;;;;;;5091610;28;20154;-70
2021/12/13 14:47:32;;;;;;;;;;;8.30;96.80;;;;;;5092077;28;20006;-70
2021/12/13 14:49:58;;;;;;;;;;;8.20;96.80;;;;;;5089740;28;19912;-70
2021/12/13 14:52:27;;;;;;;;;;;8.20;96.80;;;;;;5087099;28;19936;-70
2021/12/13 14:54:56;;;;;;;;;;;8.20;96.80;;;;;;5091765;28;19912;-70
2021/12/13 14:57:26;;;;;;;;;;;8.20;96.80;;;;;;5091378;28;20392;-70